sensor_id;sensor_type;location;lat;lon;timestamp;temperature;humidity
15152;DHT22;7676;50.900;6.234;2024-03-25T00:05:35;4.90;99.90
15152;DHT22;7676;50.900;6.234;2024-03-25T00:20:38;4.90;99.90
15152;DHT22;7676;50.900;6.234;2024-03-25T00:35:40;4.90;99.90
15152;DHT22;7676;50.900;6.234;2024-03-25T00:50:42;4.90;99.90
15152;DHT22;7676;50.900;6.234;2024-03-25T01:05:43;4.70;99.90
15152;DHT22;7676;50.900;6.234;2024-03-25T01:20:45;4.60;99.90
15152;DHT22;7676;50.900;6.234;2024-03-25T01:35:47;4.40;99.90
15152;DHT22;7676;50.900;6.234;2024-03-25T01:50:49;4.40;99.90
15152;DHT22;7676;50.900;6.234;2024-03-25T02:05:55;4.50;99.90
15152;DHT22;7676;50.900;6.234;2024-03-25T02:20:59;4.30;99.90
15152;DHT22;7676;50.900;6.234;2024-03-25T02:36:01;4.50;99.90
15152;DHT22;7676;50.900;6.234;2024-03-25T02:51:03;4.50;99.90
15152;DHT22;7676;50.900;6.234;2024-03-25T03:06:05;4.50;99.90
15152;DHT22;7676;50.900;6.234;2024-03-25T03:21:07;4.40;99.90
15152;DHT22;7676;50.900;6.234;2024-03-25T03:36:08;4.40;99.90
15152;DHT22;7676;50.900;6.234;2024-03-25T03:51:10;4.30;99.90
15152;DHT22;7676;50.900;6.234;2024-03-25T04:06:13;4.10;99.90
15152;DHT22;7676;50.900;6.234;2024-03-25T04:21:15;4.10;99.90
15152;DHT22;7676;50.900;6.234;2024-03-25T04:36:17;4.00;99.90
15152;DHT22;7676;50.900;6.234;2024-03-25T04:51:18;4.00;99.90
15152;DHT22;7676;50.900;6.234;2024-03-25T05:06:20;3.90;99.90
15152;DHT22;7676;50.900;6.234;2024-03-25T05:21:22;4.00;99.90
15152;DHT22;7676;50.900;6.234;2024-03-25T05:36:24;4.10;99.90
15152;DHT22;7676;50.900;6.234;2024-03-25T05:51:26;4.20;99.90
15152;DHT22;7676;50.900;6.234;2024-03-25T06:06:27;4.40;99.90
15152;DHT22;7676;50.900;6.234;2024-03-25T06:21:29;4.50;99.90
15152;DHT22;7676;50.900;6.234;2024-03-25T06:36:31;4.60;99.90
15152;DHT22;7676;50.900;6.234;2024-03-25T06:51:33;4.60;99.90
15152;DHT22;7676;50.900;6.234;2024-03-25T07:06:34;4.70;99.90
15152;DHT22;7676;50.900;6.234;2024-03-25T07:21:38;4.90;99.90
15152;DHT22;7676;50.900;6.234;2024-03-25T07:36:40;5.00;99.90
15152;DHT22;7676;50.900;6.234;2024-03-25T07:51:42;5.30;99.90
15152;DHT22;7676;50.900;6.234;2024-03-25T08:06:44;5.60;99.90
15152;DHT22;7676;50.900;6.234;2024-03-25T08:21:47;7.70;99.90
15152;DHT22;7676;50.900;6.234;2024-03-25T08:36:49;7.50;99.90
15152;DHT22;7676;50.900;6.234;2024-03-25T08:51:52;7.60;99.90
15152;DHT22;7676;50.900;6.234;2024-03-25T09:06:56;8.10;99.90
15152;DHT22;7676;50.900;6.234;2024-03-25T09:21:58;8.20;99.90
15152;DHT22;7676;50.900;6.234;2024-03-25T09:37:02;7.60;99.90
15152;DHT22;7676;50.900;6.234;2024-03-25T09:52:06;7.30;99.90
15152;DHT22;7676;50.900;6.234;2024-03-25T10:07:08;7.80;99.90
15152;DHT22;7676;50.900;6.234;2024-03-25T10:22:10;8.10;99.90
15152;DHT22;7676;50.900;6.234;2024-03-25T10:37:13;8.10;99.90
15152;DHT22;7676;50.900;6.234;2024-03-25T10:52:17;8.50;99.90
15152;DHT22;7676;50.900;6.234;2024-03-25T11:07:30;8.30;99.90
15152;DHT22;7676;50.900;6.234;2024-03-25T11:22:33;8.70;99.90
15152;DHT22;7676;50.900;6.234;2024-03-25T11:37:40;9.20;99.90
15152;DHT22;7676;50.900;6.234;2024-03-25T11:52:44;9.70;99.90
15152;DHT22;7676;50.900;6.234;2024-03-25T12:07:46;9.80;99.90
15152;DHT22;7676;50.900;6.234;2024-03-25T12:22:48;10.20;99.90
15152;DHT22;7676;50.900;6.234;2024-03-25T12:37:53;10.60;99.90
15152;DHT22;7676;50.900;6.234;2024-03-25T12:53:03;9.70;99.90
15152;DHT22;7676;50.900;6.234;2024-03-25T13:08:35;10.20;99.90
15152;DHT22;7676;50.900;6.234;2024-03-25T13:23:38;9.80;99.90
15152;DHT22;7676;50.900;6.234;2024-03-25T13:38:40;10.00;99.90
15152;DHT22;7676;50.900;6.234;2024-03-25T13:53:44;10.00;99.90
15152;DHT22;7676;50.900;6.234;2024-03-25T14:08:46;10.20;99.90
15152;DHT22;7676;50.900;6.234;2024-03-25T14:23:50;9.80;99.90
15152;DHT22;7676;50.900;6.234;2024-03-25T14:38:53;10.10;99.90
15152;DHT22;7676;50.900;6.234;2024-03-25T14:53:59;10.00;99.90
15152;DHT22;7676;50.900;6.234;2024-03-25T15:09:04;9.60;99.90
15152;DHT22;7676;50.900;6.234;2024-03-25T15:24:11;9.80;99.90
15152;DHT22;7676;50.900;6.234;2024-03-25T15:39:27;9.90;99.90
15152;DHT22;7676;50.900;6.234;2024-03-25T15:55:16;9.80;99.90
15152;DHT22;7676;50.900;6.234;2024-03-25T16:10:32;9.70;99.90
15152;DHT22;7676;50.900;6.234;2024-03-25T16:52:35;8.90;99.90
15152;DHT22;7676;50.900;6.234;2024-03-25T17:07:40;8.70;99.90
15152;DHT22;7676;50.900;6.234;2024-03-25T17:22:42;8.40;99.90
15152;DHT22;7676;50.900;6.234;2024-03-25T17:37:44;7.90;99.90
15152;DHT22;7676;50.900;6.234;2024-03-25T17:52:48;7.80;99.90
15152;DHT22;7676;50.900;6.234;2024-03-25T18:07:50;7.80;99.90
15152;DHT22;7676;50.900;6.234;2024-03-25T18:22:52;7.70;99.90
15152;DHT22;7676;50.900;6.234;2024-03-25T18:37:56;7.60;99.90
15152;DHT22;7676;50.900;6.234;2024-03-25T18:52:58;7.30;99.90
15152;DHT22;7676;50.900;6.234;2024-03-25T19:08:00;7.10;99.90
15152;DHT22;7676;50.900;6.234;2024-03-25T19:23:05;7.10;99.90
15152;DHT22;7676;50.900;6.234;2024-03-25T19:38:08;7.50;99.90
15152;DHT22;7676;50.900;6.234;2024-03-25T19:53:10;7.60;99.90
15152;DHT22;7676;50.900;6.234;2024-03-25T20:08:12;7.10;99.90
15152;DHT22;7676;50.900;6.234;2024-03-25T20:23:15;7.50;99.90
15152;DHT22;7676;50.900;6.234;2024-03-25T20:38:17;7.30;99.90
15152;DHT22;7676;50.900;6.234;2024-03-25T20:53:20;6.60;99.90
15152;DHT22;7676;50.900;6.234;2024-03-25T21:08:23;6.50;99.90
15152;DHT22;7676;50.900;6.234;2024-03-25T21:23:27;6.00;99.90
15152;DHT22;7676;50.900;6.234;2024-03-25T21:38:29;5.80;99.90
15152;DHT22;7676;50.900;6.234;2024-03-25T21:53:33;5.30;99.90
15152;DHT22;7676;50.900;6.234;2024-03-25T22:08:36;5.60;99.90
15152;DHT22;7676;50.900;6.234;2024-03-25T22:23:38;5.50;99.90
15152;DHT22;7676;50.900;6.234;2024-03-25T22:38:40;4.90;99.90
15152;DHT22;7676;50.900;6.234;2024-03-25T22:53:43;4.00;99.90
15152;DHT22;7676;50.900;6.234;2024-03-25T23:08:45;5.30;99.90
15152;DHT22;7676;50.900;6.234;2024-03-25T23:23:49;3.80;99.90
15152;DHT22;7676;50.900;6.234;2024-03-25T23:38:51;3.80;99.90
15152;DHT22;7676;50.900;6.234;2024-03-25T23:53:53;3.80;99.90
